Time;durP1;ratioP1;P1;durP2;ratioP2;P2;SDS_P1;SDS_P2;PMS_P1;PMS_P2;Temp;Humidity;BMP_temperature;BMP_pressure;BME280_temperature;BME280_humidity;BME280_pressure;Samples;Min_cycle;Max_cycle;Signal;HPM_P1;HPM_P2
2024/02/01 00:01:01;;;;;;;9.57;9.37;;;8.50;99.90;;;;;;5057989;28;20523;-71
2024/02/01 00:03:28;;;;;;;9.37;9.17;;;8.50;99.90;;;;;;5047971;28;20472;-72
2024/02/01 00:05:55;;;;;;;9.17;8.97;;;8.60;99.90;;;;;;5051714;28;20477;-72
2024/02/01 00:08:24;;;;;;;9.60;9.40;;;8.60;99.90;;;;;;5048853;28;20463;-72
2024/02/01 00:10:50;;;;;;;9.77;9.57;;;8.60;99.90;;;;;;5048564;28;20461;-71
2024/02/01 00:13:17;;;;;;;9.43;9.23;;;8.60;99.90;;;;;;5058330;28;20801;-73
2024/02/01 00:15:44;;;;;;;9.17;8.97;;;8.60;99.90;;;;;;5055918;28;20901;-74
2024/02/01 00:18:11;;;;;;;9.37;9.17;;;8.60;99.90;;;;;;5045764;28;20559;-72
2024/02/01 00:20:39;;;;;;;9.60;9.40;;;8.70;99.90;;;;;;5046835;28;21007;-72
2024/02/01 00:23:05;;;;;;;9.07;8.87;;;8.70;99.90;;;;;;5047527;28;20825;-70
2024/02/01 00:25:34;;;;;;;9.20;9.00;;;8.70;99.90;;;;;;5046447;28;20513;-72
2024/02/01 00:28:02;;;;;;;8.77;8.67;;;8.70;99.90;;;;;;5054236;28;20491;-74
2024/02/01 00:30:29;;;;;;;9.30;9.10;;;8.70;99.90;;;;;;5059022;28;20514;-74
2024/02/01 00:32:56;;;;;;;9.03;8.83;;;8.80;99.90;;;;;;5050819;28;20466;-72
2024/02/01 00:35:24;;;;;;;8.70;8.60;;;8.70;99.90;;;;;;5053842;28;20468;-74
2024/02/01 00:37:51;;;;;;;8.53;8.43;;;8.80;99.90;;;;;;5053268;28;20538;-71
2024/02/01 00:40:19;;;;;;;8.60;8.50;;;8.80;99.90;;;;;;5048119;28;20579;-74
2024/02/01 00:42:47;;;;;;;9.07;8.87;;;8.80;99.90;;;;;;5048160;28;20460;-74
2024/02/01 00:45:14;;;;;;;8.40;8.30;;;8.90;99.90;;;;;;5055558;28;20459;-74
2024/02/01 00:47:41;;;;;;;8.20;8.10;;;8.80;99.90;;;;;;5059655;28;20963;-73
2024/02/01 00:50:09;;;;;;;8.50;8.40;;;8.80;99.90;;;;;;5050631;28;20471;-72
2024/02/01 00:52:36;;;;;;;8.33;8.23;;;8.80;99.90;;;;;;5051298;28;20821;-72
2024/02/01 00:55:03;;;;;;;8.63;8.53;;;8.80;99.90;;;;;;5051713;28;20492;-71
2024/02/01 00:57:30;;;;;;;8.27;8.17;;;8.80;99.90;;;;;;5054716;28;20464;-72
2024/02/01 00:59:58;;;;;;;8.10;8.00;;;8.90;99.90;;;;;;5053068;28;20489;-71
2024/02/01 01:02:25;;;;;;;8.73;8.57;;;8.80;99.90;;;;;;5046056;28;20460;-71
2024/02/01 01:04:52;;;;;;;12.97;12.57;;;8.70;99.90;;;;;;5056234;28;20453;-70
2024/02/01 01:07:19;;;;;;;15.43;14.73;;;8.60;99.90;;;;;;5053478;28;20461;-70
2024/02/01 01:09:46;;;;;;;16.93;16.13;;;8.40;99.90;;;;;;5048687;28;20462;-71
2024/02/01 01:12:13;;;;;;;16.90;16.20;;;8.20;99.90;;;;;;5043707;28;20472;-71
2024/02/01 01:14:39;;;;;;;16.20;15.50;;;8.10;99.90;;;;;;5057942;28;20896;-73
2024/02/01 01:17:08;;;;;;;16.10;15.50;;;8.00;99.90;;;;;;5048310;28;20875;-73
2024/02/01 01:19:34;;;;;;;17.00;16.30;;;8.00;99.90;;;;;;5052807;28;21039;-74
2024/02/01 01:22:01;;;;;;;16.70;16.10;;;7.90;99.90;;;;;;5050925;28;20464;-74
2024/02/01 01:24:28;;;;;;;17.20;16.50;;;7.90;99.90;;;;;;5050687;28;20479;-72
2024/02/01 01:26:55;;;;;;;16.40;15.80;;;7.90;99.90;;;;;;5048933;28;20820;-73
2024/02/01 01:29:22;;;;;;;16.53;15.93;;;7.90;99.90;;;;;;5053585;28;20544;-74
2024/02/01 01:31:48;;;;;;;16.37;15.77;;;7.80;99.90;;;;;;5048136;28;20460;-75
2024/02/01 01:34:17;;;;;;;15.93;15.43;;;7.80;99.90;;;;;;5056001;28;20535;-73
2024/02/01 01:36:44;;;;;;;16.17;15.67;;;7.80;99.90;;;;;;5047693;28;20470;-74
2024/02/01 01:39:10;;;;;;;15.80;15.30;;;7.80;99.90;;;;;;5052638;28;20469;-74
2024/02/01 01:41:44;;;;;;;14.97;14.53;;;7.80;99.90;;;;;;5051761;28;20488;-74
2024/02/01 01:44:11;;;;;;;16.23;15.73;;;7.80;99.90;;;;;;5057494;28;20490;-73
2024/02/01 01:46:38;;;;;;;15.33;14.83;;;7.80;99.90;;;;;;5056051;28;20457;-74
2024/02/01 01:49:06;;;;;;;15.57;15.07;;;7.80;99.90;;;;;;5052948;28;21660;-74
2024/02/01 01:51:37;;;;;;;16.47;15.97;;;7.80;99.90;;;;;;5054285;28;20468;-73
2024/02/01 01:54:05;;;;;;;16.13;15.63;;;7.80;99.90;;;;;;5057151;28;20582;-75
2024/02/01 01:56:32;;;;;;;15.87;15.37;;;7.80;99.90;;;;;;5050187;28;20484;-74
2024/02/01 01:59:00;;;;;;;15.30;14.80;;;7.90;99.90;;;;;;5053973;28;20483;-75
2024/02/01 02:01:27;;;;;;;15.80;15.30;;;7.90;99.90;;;;;;5050476;28;20574;-74
2024/02/01 02:03:57;;;;;;;15.27;14.77;;;7.90;99.90;;;;;;5054835;28;20463;-73
2024/02/01 02:06:25;;;;;;;15.20;14.73;;;7.90;99.90;;;;;;5052599;28;20469;-76
2024/02/01 02:08:52;;;;;;;16.07;15.57;;;7.90;99.90;;;;;;5060771;28;20469;-74
2024/02/01 02:11:23;;;;;;;15.27;14.87;;;7.90;99.90;;;;;;5054966;28;20480;-73
2024/02/01 02:13:51;;;;;;;15.30;14.90;;;7.90;99.90;;;;;;5049460;28;20555;-74
2024/02/01 02:16:20;;;;;;;15.77;15.27;;;7.90;99.90;;;;;;5058855;28;20448;-74
2024/02/01 02:18:48;;;;;;;15.60;15.10;;;7.90;99.90;;;;;;5061523;28;20451;-73
2024/02/01 02:21:19;;;;;;;16.10;15.60;;;7.90;99.90;;;;;;5069057;28;20492;-73
2024/02/01 02:23:49;;;;;;;16.20;15.70;;;7.90;99.90;;;;;;5047119;28;20496;-74
2024/02/01 02:26:17;;;;;;;15.73;15.23;;;7.90;99.90;;;;;;5057109;28;20456;-74
2024/02/01 02:28:43;;;;;;;16.30;15.80;;;8.00;99.90;;;;;;5063092;28;20534;-74
2024/02/01 02:31:10;;;;;;;16.13;15.63;;;8.00;99.90;;;;;;5058310;28;20760;-74
2024/02/01 02:33:37;;;;;;;17.03;16.53;;;8.00;99.90;;;;;;5052237;28;20464;-73
2024/02/01 02:36:09;;;;;;;16.50;16.00;;;8.10;99.90;;;;;;5066654;28;20467;-73
2024/02/01 02:38:36;;;;;;;15.70;15.20;;;8.10;99.90;;;;;;5057531;28;20473;-72
2024/02/01 02:41:05;;;;;;;16.87;16.37;;;8.00;99.90;;;;;;5062193;28;20934;-73
2024/02/01 02:43:32;;;;;;;17.80;17.20;;;8.00;99.90;;;;;;5048904;28;20467;-73
2024/02/01 02:45:59;;;;;;;16.93;16.43;;;8.10;99.90;;;;;;5050520;28;20496;-75
2024/02/01 02:48:25;;;;;;;16.47;15.97;;;8.10;99.90;;;;;;5060772;28;20469;-76
2024/02/01 02:50:52;;;;;;;15.97;15.47;;;8.10;99.90;;;;;;5060651;28;20923;-73
2024/02/01 02:53:19;;;;;;;16.50;16.00;;;8.10;99.90;;;;;;5048267;28;20479;-75
2024/02/01 02:55:46;;;;;;;16.63;16.13;;;8.10;99.90;;;;;;5053037;28;20488;-73
2024/02/01 02:58:14;;;;;;;16.10;15.60;;;8.10;99.90;;;;;;5062044;28;20489;-72
2024/02/01 03:00:41;;;;;;;15.60;15.10;;;8.10;99.90;;;;;;5058062;28;20681;-72
2024/02/01 03:03:09;;;;;;;16.60;16.10;;;8.10;99.90;;;;;;5047276;28;20472;-74
2024/02/01 03:05:36;;;;;;;16.17;15.67;;;8.20;99.90;;;;;;5056791;28;20468;-71
2024/02/01 03:08:04;;;;;;;16.27;15.77;;;8.10;99.90;;;;;;5059150;28;20780;-73
2024/02/01 03:10:32;;;;;;;15.80;15.30;;;8.20;99.90;;;;;;5063054;28;20505;-75
2024/02/01 03:12:59;;;;;;;15.73;15.23;;;8.20;99.90;;;;;;5063580;28;20462;-75
2024/02/01 03:15:29;;;;;;;15.53;15.03;;;8.20;99.90;;;;;;5059975;28;20467;-72
2024/02/01 03:17:57;;;;;;;16.50;16.00;;;8.10;99.90;;;;;;5055493;28;20460;-72
2024/02/01 03:20:25;;;;;;;16.87;16.37;;;8.20;99.90;;;;;;5051385;28;20504;-75
2024/02/01 03:22:54;;;;;;;14.70;14.30;;;8.20;99.90;;;;;;5049055;28;20970;-74
2024/02/01 03:25:29;;;;;;;15.67;15.17;;;8.20;99.90;;;;;;5053843;28;20559;-74
2024/02/01 03:28:00;;;;;;;15.40;15.00;;;8.20;99.90;;;;;;5056509;28;20946;-73
2024/02/01 03:30:29;;;;;;;14.37;13.97;;;8.20;99.90;;;;;;5056727;28;20500;-73
2024/02/01 03:32:57;;;;;;;15.37;14.97;;;8.20;99.90;;;;;;5046214;28;20534;-73
2024/02/01 03:35:23;;;;;;;15.70;15.20;;;8.20;99.90;;;;;;5054442;28;20459;-73
2024/02/01 03:37:50;;;;;;;15.87;15.37;;;8.30;99.90;;;;;;5051568;28;20502;-73
2024/02/01 03:40:18;;;;;;;15.10;14.70;;;8.30;99.90;;;;;;5053596;28;21037;-73
2024/02/01 03:42:46;;;;;;;15.13;14.73;;;8.30;99.90;;;;;;5046216;28;20491;-74
2024/02/01 03:45:13;;;;;;;15.27;14.87;;;8.30;99.90;;;;;;5057482;28;20559;-73
2024/02/01 03:47:41;;;;;;;15.97;15.47;;;8.30;99.90;;;;;;5060796;28;20462;-73
2024/02/01 03:50:09;;;;;;;16.07;15.57;;;8.30;99.90;;;;;;5045761;28;20887;-73
2024/02/01 03:52:37;;;;;;;16.07;15.57;;;8.30;99.90;;;;;;5047441;28;20866;-73
2024/02/01 03:55:16;;;;;;;16.40;15.90;;;8.30;99.90;;;;;;5055993;28;20542;-73
2024/02/01 03:57:43;;;;;;;16.80;16.30;;;8.40;99.90;;;;;;5052900;28;20480;-73
2024/02/01 04:00:24;;;;;;;16.93;16.43;;;8.40;99.90;;;;;;5058477;28;20493;-73
2024/02/01 04:02:53;;;;;;;17.70;17.10;;;8.40;99.90;;;;;;5051451;28;20467;-72
2024/02/01 04:05:21;;;;;;;17.33;16.73;;;8.40;99.90;;;;;;5052354;28;20957;-73
2024/02/01 04:07:47;;;;;;;16.90;16.37;;;8.40;99.90;;;;;;5047801;28;20461;-77
2024/02/01 04:10:15;;;;;;;17.17;16.57;;;8.40;99.90;;;;;;5060540;28;20453;-73
2024/02/01 04:12:42;;;;;;;16.90;16.40;;;8.40;99.90;;;;;;5050356;28;20556;-75
2024/02/01 04:15:10;;;;;;;16.47;15.97;;;8.40;99.90;;;;;;5057019;28;20465;-74
2024/02/01 04:17:37;;;;;;;17.40;16.80;;;8.40;99.90;;;;;;5052906;28;20797;-75
2024/02/01 04:20:06;;;;;;;16.70;16.20;;;8.50;99.90;;;;;;5054460;28;20459;-74
2024/02/01 04:22:33;;;;;;;17.20;16.60;;;8.40;99.90;;;;;;5052802;28;20516;-73
2024/02/01 04:25:00;;;;;;;17.50;16.90;;;8.50;99.90;;;;;;5053629;28;20469;-72
2024/02/01 04:27:26;;;;;;;17.03;16.43;;;8.50;99.90;;;;;;5056223;28;20486;-72
2024/02/01 04:29:54;;;;;;;18.00;17.40;;;8.50;99.90;;;;;;5051233;28;20462;-72
2024/02/01 04:32:21;;;;;;;17.90;17.30;;;8.50;99.90;;;;;;5051513;28;20978;-73
2024/02/01 04:34:48;;;;;;;17.53;16.93;;;8.50;99.90;;;;;;5057441;28;20701;-75
2024/02/01 04:37:18;;;;;;;17.70;17.10;;;8.50;99.90;;;;;;5066365;28;20471;-76
2024/02/01 04:39:47;;;;;;;17.77;17.17;;;8.50;99.90;;;;;;5051597;28;20555;-74
2024/02/01 04:42:18;;;;;;;17.77;17.17;;;8.50;99.90;;;;;;5052295;28;20797;-72
2024/02/01 04:44:46;;;;;;;18.27;17.67;;;8.50;99.90;;;;;;5051416;28;20772;-73
2024/02/01 04:47:14;;;;;;;18.20;17.60;;;8.50;99.90;;;;;;5050513;28;21021;-72
2024/02/01 04:49:42;;;;;;;18.43;17.73;;;8.50;99.90;;;;;;5058924;28;20462;-73
2024/02/01 04:52:10;;;;;;;19.67;18.90;;;8.50;99.90;;;;;;5051029;28;20456;-73
2024/02/01 04:54:39;;;;;;;19.20;18.50;;;8.60;99.90;;;;;;5055720;28;20465;-75
2024/02/01 04:57:13;;;;;;;19.17;18.47;;;8.50;99.90;;;;;;5053067;28;20892;-73
2024/02/01 04:59:42;;;;;;;20.00;19.20;;;8.50;99.90;;;;;;5049662;28;20483;-76
2024/02/01 05:02:09;;;;;;;19.83;19.03;;;8.60;99.90;;;;;;5057922;28;20496;-72
2024/02/01 05:04:35;;;;;;;19.97;19.17;;;8.60;99.90;;;;;;5055406;28;20468;-72
2024/02/01 05:07:05;;;;;;;20.13;19.33;;;8.60;99.90;;;;;;5047718;28;20467;-75
2024/02/01 05:09:33;;;;;;;20.30;19.50;;;8.60;99.90;;;;;;5055509;28;20553;-74
2024/02/01 05:12:01;;;;;;;20.50;19.70;;;8.50;99.90;;;;;;5053718;28;20467;-75
2024/02/01 05:14:29;;;;;;;20.20;19.40;;;8.60;99.90;;;;;;5059692;28;20963;-72
2024/02/01 05:16:56;;;;;;;20.53;19.73;;;8.60;99.90;;;;;;5053291;28;20460;-72
2024/02/01 05:19:25;;;;;;;20.63;19.83;;;8.60;99.90;;;;;;5049967;28;20939;-74
2024/02/01 05:21:53;;;;;;;20.43;19.63;;;8.60;99.90;;;;;;5055655;28;20865;-72
2024/02/01 05:24:22;;;;;;;21.70;20.80;;;8.60;99.90;;;;;;5064111;28;20468;-72
2024/02/01 05:26:51;;;;;;;21.00;20.10;;;8.60;99.90;;;;;;5053625;28;20576;-73
2024/02/01 05:29:21;;;;;;;21.23;20.33;;;8.60;99.90;;;;;;5059460;28;20471;-72
2024/02/01 05:31:50;;;;;;;21.70;20.80;;;8.60;99.90;;;;;;5066212;28;20462;-71
2024/02/01 05:34:18;;;;;;;20.97;20.10;;;8.60;99.90;;;;;;5050369;28;20470;-72
2024/02/01 05:36:47;;;;;;;20.67;19.87;;;8.50;99.90;;;;;;5057670;28;20514;-71
2024/02/01 05:39:25;;;;;;;20.37;19.57;;;8.60;99.90;;;;;;5055620;28;20466;-71
2024/02/01 05:41:54;;;;;;;20.90;20.00;;;8.60;99.90;;;;;;5057084;28;20525;-71
2024/02/01 05:44:23;;;;;;;22.00;21.10;;;8.60;99.90;;;;;;5054255;28;20471;-71
2024/02/01 05:47:06;;;;;;;21.40;20.50;;;8.60;99.90;;;;;;5048757;28;20494;-74
2024/02/01 05:49:33;;;;;;;22.10;21.10;;;8.60;99.90;;;;;;5057966;28;20859;-71
2024/02/01 05:52:02;;;;;;;20.63;19.73;;;8.60;99.90;;;;;;5058095;28;20511;-71
2024/02/01 05:54:29;;;;;;;21.80;20.90;;;8.50;99.90;;;;;;5056240;28;20544;-71
2024/02/01 05:56:57;;;;;;;21.00;20.10;;;8.50;99.90;;;;;;5051683;28;20488;-71
2024/02/01 05:59:26;;;;;;;21.03;20.20;;;8.50;99.90;;;;;;5050581;28;20601;-71
2024/02/01 06:01:52;;;;;;;20.47;19.67;;;8.50;99.90;;;;;;5054594;28;20594;-70
2024/02/01 06:04:19;;;;;;;21.30;20.40;;;8.50;99.90;;;;;;5055504;28;20866;-74
2024/02/01 06:07:01;;;;;;;19.80;19.00;;;8.50;99.90;;;;;;5068883;28;20451;-72
2024/02/01 06:09:27;;;;;;;20.07;19.27;;;8.60;99.90;;;;;;5056227;28;20471;-71
2024/02/01 06:11:54;;;;;;;19.87;19.07;;;8.60;99.90;;;;;;5050070;28;20461;-71
2024/02/01 06:14:22;;;;;;;19.97;19.17;;;8.50;99.90;;;;;;5057836;28;20523;-71
2024/02/01 06:16:51;;;;;;;20.30;19.50;;;8.50;99.90;;;;;;5054364;28;20464;-71
2024/02/01 06:19:18;;;;;;;19.43;18.63;;;8.60;99.90;;;;;;5064450;28;20603;-71
2024/02/01 06:21:45;;;;;;;19.63;18.83;;;8.50;99.90;;;;;;5051505;28;20523;-71
2024/02/01 06:24:11;;;;;;;19.63;18.83;;;8.50;99.90;;;;;;5055762;28;20468;-71
2024/02/01 06:26:38;;;;;;;20.07;19.27;;;8.50;99.90;;;;;;5057603;28;20469;-71
2024/02/01 06:29:08;;;;;;;20.00;19.20;;;8.50;99.90;;;;;;5047384;28;20829;-71
2024/02/01 06:31:37;;;;;;;19.20;18.50;;;8.50;99.90;;;;;;5061453;28;20463;-71
2024/02/01 06:34:06;;;;;;;19.30;18.60;;;8.50;99.90;;;;;;5062366;28;20782;-71
2024/02/01 06:36:36;;;;;;;19.00;18.30;;;8.50;99.90;;;;;;5055051;28;20556;-72
2024/02/01 06:39:13;;;;;;;19.47;18.67;;;8.40;99.90;;;;;;5058714;28;21257;-72
2024/02/01 06:41:46;;;;;;;20.17;19.37;;;8.40;99.90;;;;;;5054021;28;20854;-71
2024/02/01 06:44:22;;;;;;;20.70;19.80;;;8.20;99.90;;;;;;5054027;28;20549;-71
2024/02/01 06:47:05;;;;;;;20.37;19.57;;;8.10;99.90;;;;;;5049182;28;20974;-70
2024/02/01 06:49:59;;;;;;;19.87;19.07;;;8.00;99.90;;;;;;5056467;28;20923;-73
2024/02/01 06:52:39;;;;;;;19.40;18.60;;;7.90;99.90;;;;;;5061386;28;20472;-70
2024/02/01 06:55:24;;;;;;;19.60;18.80;;;7.80;99.90;;;;;;5060764;28;20678;-72
2024/02/01 06:58:03;;;;;;;19.70;18.90;;;7.80;99.90;;;;;;5052226;28;20479;-71
2024/02/01 07:03:32;;;;;;;18.13;17.43;;;7.70;99.90;;;;;;5054978;28;20697;-71
2024/02/01 07:06:06;;;;;;;18.43;17.63;;;7.70;99.90;;;;;;5060555;28;20475;-72
2024/02/01 07:08:45;;;;;;;18.80;18.00;;;7.60;99.90;;;;;;5051309;28;20468;-72
2024/02/01 07:11:24;;;;;;;18.80;18.00;;;7.50;99.90;;;;;;5053902;28;20451;-70
2024/02/01 07:14:08;;;;;;;18.03;17.23;;;7.40;99.90;;;;;;5054487;28;20463;-70
2024/02/01 07:16:43;;;;;;;17.83;17.03;;;7.30;99.90;;;;;;5054275;28;20472;-71
2024/02/01 07:19:12;;;;;;;17.43;16.73;;;7.10;99.90;;;;;;5048110;28;20471;-72
2024/02/01 07:22:00;;;;;;;18.17;17.37;;;7.00;99.90;;;;;;5050391;28;20904;-73
2024/02/01 07:24:39;;;;;;;17.73;16.93;;;6.80;99.90;;;;;;5049951;28;20460;-71
2024/02/01 07:57:51;;;;;;;19.90;18.80;;;5.40;99.90;;;;;;5051171;28;20466;-70
2024/02/01 08:00:27;;;;;;;18.93;17.93;;;5.40;99.90;;;;;;5051099;28;20540;-72
2024/02/01 08:03:00;;;;;;;18.97;17.97;;;5.40;99.90;;;;;;5055668;28;21055;-70
2024/02/01 08:08:14;;;;;;;18.53;17.63;;;5.30;99.90;;;;;;5053851;28;21012;-71
2024/02/01 08:10:44;;;;;;;18.80;17.90;;;5.30;99.90;;;;;;5056424;28;20866;-70
2024/02/01 08:13:13;;;;;;;18.50;17.60;;;5.30;99.90;;;;;;5056459;28;20486;-72
2024/02/01 08:15:41;;;;;;;18.40;17.50;;;5.30;99.90;;;;;;5056892;28;20486;-71
2024/02/01 08:18:09;;;;;;;18.30;17.40;;;5.30;99.90;;;;;;5047363;28;20460;-71
2024/02/01 08:20:37;;;;;;;17.93;17.13;;;5.30;99.90;;;;;;5053772;28;20456;-72
2024/02/01 08:23:04;;;;;;;17.80;17.00;;;5.30;99.90;;;;;;5052478;28;20510;-70
2024/02/01 08:25:33;;;;;;;17.50;16.70;;;5.30;99.90;;;;;;5050178;28;20972;-70
2024/02/01 08:28:03;;;;;;;17.03;16.33;;;5.20;99.90;;;;;;5058420;28;21019;-72
2024/02/01 08:30:31;;;;;;;17.40;16.60;;;5.30;99.90;;;;;;5049666;28;21005;-70
2024/02/01 08:33:03;;;;;;;16.70;16.00;;;5.40;99.90;;;;;;5050661;28;20602;-71
2024/02/01 08:35:33;;;;;;;15.93;15.33;;;5.40;99.90;;;;;;5060767;28;20459;-72
2024/02/01 08:38:01;;;;;;;15.27;14.77;;;5.40;99.90;;;;;;5048931;28;20464;-70
2024/02/01 08:40:28;;;;;;;15.00;14.50;;;5.40;99.90;;;;;;5053091;28;20459;-71
2024/02/01 08:42:59;;;;;;;15.10;14.60;;;5.50;99.90;;;;;;5044588;28;21084;-72
2024/02/01 08:45:28;;;;;;;14.93;14.43;;;5.50;99.90;;;;;;5050875;28;20467;-72
2024/02/01 08:48:00;;;;;;;15.60;15.10;;;5.60;99.90;;;;;;5053848;28;20459;-71
2024/02/01 08:50:28;;;;;;;15.87;15.33;;;5.70;99.90;;;;;;5054019;28;20565;-71
2024/02/01 08:52:56;;;;;;;15.80;15.30;;;5.70;99.90;;;;;;5054092;28;20466;-70
2024/02/01 08:55:23;;;;;;;14.83;14.33;;;5.80;99.90;;;;;;5046754;28;20485;-73
2024/02/01 08:57:50;;;;;;;15.33;14.83;;;5.90;99.90;;;;;;5048074;28;20468;-71
2024/02/01 09:00:25;;;;;;;14.93;14.43;;;5.90;99.90;;;;;;5060279;28;20447;-72
2024/02/01 09:03:10;;;;;;;14.67;14.17;;;6.00;99.90;;;;;;5051484;28;20527;-72
2024/02/01 09:05:39;;;;;;;15.03;14.53;;;6.00;99.90;;;;;;5053870;28;20465;-70
2024/02/01 09:08:08;;;;;;;14.40;13.90;;;6.00;99.90;;;;;;5055724;28;20866;-70
2024/02/01 09:10:37;;;;;;;15.00;14.50;;;6.00;99.90;;;;;;5050605;28;20467;-72
2024/02/01 09:13:04;;;;;;;14.77;14.27;;;6.10;99.90;;;;;;5046319;28;20950;-71
2024/02/01 09:15:32;;;;;;;13.77;13.37;;;6.10;99.90;;;;;;5051181;28;20449;-72
2024/02/01 09:18:01;;;;;;;13.87;13.40;;;6.10;99.90;;;;;;5045673;28;20457;-70
2024/02/01 09:20:28;;;;;;;13.23;12.83;;;6.20;99.90;;;;;;5056575;28;20455;-71
2024/02/01 09:22:57;;;;;;;13.77;13.27;;;6.20;99.90;;;;;;5052502;28;21093;-70
2024/02/01 09:25:25;;;;;;;12.90;12.50;;;6.20;99.90;;;;;;5046999;28;20459;-72
2024/02/01 09:27:53;;;;;;;13.20;12.80;;;6.20;99.90;;;;;;5047639;28;20963;-70
2024/02/01 09:30:23;;;;;;;12.80;12.40;;;6.30;99.90;;;;;;5048603;28;20468;-70
2024/02/01 09:32:51;;;;;;;12.40;12.00;;;6.30;99.90;;;;;;5046250;28;20464;-71
2024/02/01 09:35:20;;;;;;;12.20;11.80;;;6.30;99.90;;;;;;5046746;28;20457;-71
2024/02/01 09:37:51;;;;;;;12.50;12.10;;;6.40;99.90;;;;;;5050455;28;20464;-71
2024/02/01 09:40:18;;;;;;;12.40;12.00;;;6.40;99.90;;;;;;5049859;28;20601;-70
2024/02/01 09:42:47;;;;;;;11.70;11.40;;;6.50;99.90;;;;;;5047388;28;20503;-72
2024/02/01 09:45:15;;;;;;;11.73;11.43;;;6.50;99.90;;;;;;5050893;28;20476;-72
2024/02/01 09:47:43;;;;;;;11.80;11.50;;;6.50;99.90;;;;;;5049266;28;20974;-72
2024/02/01 09:50:13;;;;;;;11.27;10.97;;;6.60;99.90;;;;;;5043596;28;20467;-71
2024/02/01 09:52:44;;;;;;;11.37;11.07;;;6.60;99.90;;;;;;5048011;28;21584;-71
2024/02/01 09:55:16;;;;;;;12.03;11.63;;;6.60;99.90;;;;;;5044966;28;20470;-71
2024/02/01 09:57:46;;;;;;;11.60;11.30;;;6.70;99.90;;;;;;5046475;28;20467;-70
2024/02/01 10:00:18;;;;;;;12.40;12.00;;;6.70;99.90;;;;;;5051012;28;20467;-71
2024/02/01 10:02:46;;;;;;;13.10;12.70;;;6.80;99.90;;;;;;5052982;28;20585;-71
2024/02/01 10:05:13;;;;;;;12.30;11.90;;;6.80;99.90;;;;;;5047705;28;20790;-72
2024/02/01 10:07:41;;;;;;;12.30;11.90;;;6.90;99.90;;;;;;5048117;28;20461;-70
2024/02/01 10:10:13;;;;;;;12.50;12.10;;;7.00;99.90;;;;;;5053153;28;20467;-71
2024/02/01 10:12:41;;;;;;;12.30;11.90;;;7.00;99.90;;;;;;5053294;28;20719;-71
2024/02/01 10:15:10;;;;;;;12.90;12.50;;;7.10;99.90;;;;;;5052090;28;20986;-71
2024/02/01 10:17:45;;;;;;;13.03;12.63;;;7.20;99.90;;;;;;5055365;28;20452;-71
2024/02/01 10:20:38;;;;;;;13.20;12.80;;;7.20;99.90;;;;;;5049346;28;21032;-70
2024/02/01 10:23:07;;;;;;;13.87;13.37;;;7.20;99.90;;;;;;5050237;28;20502;-71
2024/02/01 10:25:38;;;;;;;14.10;13.60;;;7.20;99.90;;;;;;5049040;28;20533;-71
2024/02/01 10:28:07;;;;;;;14.20;13.70;;;7.40;99.90;;;;;;5052547;28;20466;-72
2024/02/01 10:30:36;;;;;;;13.60;13.10;;;7.40;99.90;;;;;;5050025;28;20449;-71
2024/02/01 10:33:03;;;;;;;13.67;13.17;;;7.40;99.90;;;;;;5047924;28;20491;-71
2024/02/01 10:35:32;;;;;;;14.47;13.97;;;7.50;99.90;;;;;;5049885;28;20471;-71
2024/02/01 10:38:01;;;;;;;13.63;13.13;;;7.50;99.90;;;;;;5051708;28;20538;-71
2024/02/01 10:40:39;;;;;;;14.30;13.80;;;7.60;99.90;;;;;;5048564;28;20464;-71
2024/02/01 10:43:07;;;;;;;14.17;13.67;;;7.60;99.90;;;;;;5051209;28;20544;-72
2024/02/01 10:45:36;;;;;;;14.13;13.63;;;7.70;99.90;;;;;;5054019;28;20551;-70
2024/02/01 10:48:09;;;;;;;14.80;14.30;;;7.70;99.90;;;;;;5047164;28;20933;-71
2024/02/01 10:50:39;;;;;;;14.10;13.60;;;7.80;99.90;;;;;;5053920;28;20468;-71
2024/02/01 10:53:07;;;;;;;14.20;13.70;;;7.90;99.90;;;;;;5053234;28;20480;-72
2024/02/01 10:55:38;;;;;;;14.10;13.60;;;7.90;99.90;;;;;;5052085;28;20480;-70
2024/02/01 10:58:05;;;;;;;14.07;13.57;;;8.10;99.90;;;;;;5048647;28;20522;-71
2024/02/01 11:00:32;;;;;;;15.00;14.40;;;8.10;99.90;;;;;;5052900;28;20476;-71
2024/02/01 11:03:05;;;;;;;14.27;13.77;;;8.30;99.90;;;;;;5050505;28;20893;-71
2024/02/01 11:05:32;;;;;;;14.30;13.80;;;8.60;99.90;;;;;;5049988;28;21145;-71
2024/02/01 11:07:59;;;;;;;15.00;14.40;;;8.70;99.90;;;;;;5051292;28;20907;-70
2024/02/01 11:10:27;;;;;;;14.50;14.00;;;9.00;99.90;;;;;;5054103;28;20546;-72
2024/02/01 11:12:56;;;;;;;14.77;14.20;;;9.20;99.90;;;;;;5050484;28;20507;-71
2024/02/01 11:15:24;;;;;;;14.63;14.13;;;9.40;99.90;;;;;;5052779;28;20456;-71
2024/02/01 11:17:51;;;;;;;14.47;13.97;;;9.60;99.90;;;;;;5051327;28;20477;-72
2024/02/01 11:20:24;;;;;;;14.37;13.87;;;10.00;99.90;;;;;;5052419;28;20564;-71
2024/02/01 11:22:55;;;;;;;14.20;13.70;;;10.00;99.90;;;;;;5046529;28;21114;-70
2024/02/01 11:25:28;;;;;;;14.50;14.00;;;9.90;99.90;;;;;;5051268;28;20555;-71
2024/02/01 11:27:58;;;;;;;14.47;13.97;;;9.60;99.90;;;;;;5051985;28;20464;-71
2024/02/01 11:30:28;;;;;;;14.07;13.57;;;9.80;99.90;;;;;;5052319;28;20475;-70
2024/02/01 11:32:55;;;;;;;14.40;13.90;;;9.90;99.90;;;;;;5048662;28;20464;-71
2024/02/01 11:35:23;;;;;;;14.67;14.17;;;10.10;99.90;;;;;;5048238;28;20468;-72
2024/02/01 11:37:55;;;;;;;14.50;14.00;;;10.50;99.90;;;;;;5045533;28;20552;-71
2024/02/01 11:40:22;;;;;;;14.20;13.70;;;10.60;99.90;;;;;;5050550;28;20578;-70
2024/02/01 11:42:49;;;;;;;14.53;14.03;;;10.70;99.90;;;;;;5052336;28;20476;-71
2024/02/01 11:45:18;;;;;;;15.20;14.60;;;10.80;99.90;;;;;;5053600;28;20479;-71
2024/02/01 11:47:51;;;;;;;15.50;14.90;;;10.90;99.90;;;;;;5048316;28;20790;-72
2024/02/01 11:50:18;;;;;;;15.10;14.50;;;10.80;99.90;;;;;;5047983;28;21035;-71
2024/02/01 11:52:57;;;;;;;14.67;14.07;;;10.80;99.90;;;;;;5053619;28;20478;-71
2024/02/01 11:55:27;;;;;;;14.87;14.27;;;10.80;99.90;;;;;;5046494;28;20486;-71
2024/02/01 11:57:57;;;;;;;15.20;14.60;;;11.00;99.90;;;;;;5050567;28;20516;-72
2024/02/01 12:00:26;;;;;;;15.40;14.80;;;11.00;99.90;;;;;;5051278;28;20477;-72
2024/02/01 12:02:53;;;;;;;15.03;14.43;;;11.10;99.90;;;;;;5048521;28;20472;-71
2024/02/01 12:05:21;;;;;;;16.00;15.30;;;11.20;99.90;;;;;;5048995;28;20465;-71
2024/02/01 12:07:48;;;;;;;15.57;14.97;;;11.20;99.90;;;;;;5043686;28;20463;-71
2024/02/01 12:10:17;;;;;;;15.50;14.90;;;11.20;99.90;;;;;;5052342;28;20471;-73
2024/02/01 12:12:45;;;;;;;15.17;14.57;;;11.00;99.90;;;;;;5047569;28;20969;-72
2024/02/01 12:15:13;;;;;;;15.50;14.90;;;10.80;99.90;;;;;;5051420;28;20546;-71
2024/02/01 12:17:43;;;;;;;15.87;15.27;;;11.00;99.90;;;;;;5050019;28;20473;-70
2024/02/01 12:20:11;;;;;;;16.00;15.40;;;11.40;99.90;;;;;;5047053;28;20474;-71
2024/02/01 12:22:38;;;;;;;15.70;15.10;;;11.70;99.90;;;;;;5049783;28;20498;-71
2024/02/01 12:25:10;;;;;;;15.50;14.90;;;11.70;99.90;;;;;;5051478;28;20496;-71
2024/02/01 12:27:37;;;;;;;15.80;15.20;;;12.00;99.90;;;;;;5048563;28;20553;-70
2024/02/01 12:30:11;;;;;;;15.50;14.90;;;12.30;99.90;;;;;;5049769;28;20460;-70
2024/02/01 12:32:43;;;;;;;15.33;14.73;;;12.00;99.90;;;;;;5050859;28;20472;-72
2024/02/01 12:35:14;;;;;;;16.00;15.30;;;12.00;99.90;;;;;;5047590;28;20467;-69
2024/02/01 12:37:41;;;;;;;15.70;15.10;;;12.10;99.90;;;;;;5050731;28;21052;-70
2024/02/01 12:40:11;;;;;;;16.07;15.37;;;11.50;99.90;;;;;;5045585;28;20484;-72
2024/02/01 12:42:39;;;;;;;16.10;15.40;;;11.00;99.90;;;;;;5049316;28;20521;-70
2024/02/01 12:45:08;;;;;;;15.63;15.03;;;10.60;99.90;;;;;;5045385;28;20579;-70
2024/02/01 12:47:37;;;;;;;15.60;15.00;;;10.40;99.90;;;;;;5049248;28;20570;-70
2024/02/01 12:50:06;;;;;;;15.57;14.97;;;10.90;99.90;;;;;;5044787;28;20465;-70
2024/02/01 12:52:34;;;;;;;15.23;14.63;;;10.90;99.90;;;;;;5050970;28;20489;-72
2024/02/01 12:55:02;;;;;;;15.40;14.80;;;11.10;99.90;;;;;;5048591;28;20477;-71
2024/02/01 12:57:29;;;;;;;15.50;14.90;;;11.50;99.90;;;;;;5050133;28;20966;-70
2024/02/01 12:59:58;;;;;;;15.57;14.97;;;11.70;99.90;;;;;;5050118;28;20459;-70
2024/02/01 13:02:25;;;;;;;16.07;15.37;;;12.00;99.90;;;;;;5046001;28;20462;-71
2024/02/01 13:04:52;;;;;;;16.33;15.63;;;12.40;99.90;;;;;;5048548;28;21097;-70
2024/02/01 13:07:21;;;;;;;15.87;15.27;;;12.20;99.90;;;;;;5051320;28;20990;-70
2024/02/01 13:09:49;;;;;;;15.13;14.53;;;11.70;99.90;;;;;;5048713;28;20461;-70
2024/02/01 13:12:22;;;;;;;15.83;15.23;;;11.80;99.90;;;;;;5047631;28;20536;-70
2024/02/01 13:14:57;;;;;;;15.60;15.00;;;11.80;99.90;;;;;;5047510;28;20576;-69
2024/02/01 13:17:27;;;;;;;15.30;14.70;;;11.90;99.90;;;;;;5046239;28;20579;-72
2024/02/01 13:19:53;;;;;;;16.20;15.50;;;12.20;99.90;;;;;;5045505;28;20466;-72
2024/02/01 13:22:20;;;;;;;15.63;15.03;;;12.00;99.90;;;;;;5049162;28;20593;-72
2024/02/01 13:24:49;;;;;;;15.47;14.87;;;11.90;99.90;;;;;;5050205;28;20594;-72